sensor_id;sensor_type;location;lat;lon;timestamp;P1;durP1;ratioP1;P2;durP2;ratioP2
15603;SDS011;7902;49.042;9.092;2023-08-17T00:00:44;19.90;;;4.30;;
15603;SDS011;7902;49.042;9.092;2023-08-17T00:03:10;27.90;;;3.77;;
15603;SDS011;7902;49.042;9.092;2023-08-17T00:05:36;19.07;;;4.07;;
15603;SDS011;7902;49.042;9.092;2023-08-17T00:08:02;19.23;;;3.67;;
15603;SDS011;7902;49.042;9.092;2023-08-17T00:10:28;20.23;;;4.33;;
15603;SDS011;7902;49.042;9.092;2023-08-17T00:12:54;19.43;;;4.30;;
15603;SDS011;7902;49.042;9.092;2023-08-17T00:15:20;22.13;;;4.00;;
15603;SDS011;7902;49.042;9.092;2023-08-17T00:17:46;18.30;;;4.10;;
15603;SDS011;7902;49.042;9.092;2023-08-17T00:20:12;21.90;;;5.30;;
15603;SDS011;7902;49.042;9.092;2023-08-17T00:22:38;21.50;;;5.07;;
15603;SDS011;7902;49.042;9.092;2023-08-17T00:25:04;19.30;;;4.83;;
15603;SDS011;7902;49.042;9.092;2023-08-17T00:27:33;17.90;;;3.80;;
15603;SDS011;7902;49.042;9.092;2023-08-17T00:29:59;19.80;;;4.73;;
15603;SDS011;7902;49.042;9.092;2023-08-17T00:32:25;17.73;;;4.10;;
15603;SDS011;7902;49.042;9.092;2023-08-17T00:34:51;22.90;;;3.87;;
15603;SDS011;7902;49.042;9.092;2023-08-17T00:37:17;18.17;;;4.00;;
15603;SDS011;7902;49.042;9.092;2023-08-17T00:39:42;18.57;;;4.60;;
15603;SDS011;7902;49.042;9.092;2023-08-17T00:42:08;19.80;;;3.90;;
15603;SDS011;7902;49.042;9.092;2023-08-17T00:44:35;19.90;;;4.47;;
15603;SDS011;7902;49.042;9.092;2023-08-17T00:47:01;18.83;;;4.60;;
15603;SDS011;7902;49.042;9.092;2023-08-17T00:49:27;23.80;;;3.97;;
15603;SDS011;7902;49.042;9.092;2023-08-17T00:51:53;17.97;;;3.87;;
15603;SDS011;7902;49.042;9.092;2023-08-17T00:54:24;19.17;;;4.17;;
15603;SDS011;7902;49.042;9.092;2023-08-17T00:56:52;24.50;;;4.53;;
15603;SDS011;7902;49.042;9.092;2023-08-17T00:59:20;23.73;;;4.37;;
15603;SDS011;7902;49.042;9.092;2023-08-17T01:01:47;22.90;;;4.73;;
15603;SDS011;7902;49.042;9.092;2023-08-17T01:04:14;18.90;;;4.43;;
15603;SDS011;7902;49.042;9.092;2023-08-17T01:06:39;17.70;;;4.20;;
15603;SDS011;7902;49.042;9.092;2023-08-17T01:09:05;17.87;;;4.17;;
15603;SDS011;7902;49.042;9.092;2023-08-17T01:11:45;19.77;;;4.80;;
15603;SDS011;7902;49.042;9.092;2023-08-17T01:14:20;19.80;;;5.10;;
15603;SDS011;7902;49.042;9.092;2023-08-17T01:17:11;19.80;;;4.97;;
15603;SDS011;7902;49.042;9.092;2023-08-17T01:19:47;24.43;;;4.50;;
15603;SDS011;7902;49.042;9.092;2023-08-17T01:22:17;22.80;;;4.40;;
15603;SDS011;7902;49.042;9.092;2023-08-17T01:24:46;18.43;;;4.13;;
15603;SDS011;7902;49.042;9.092;2023-08-17T01:27:12;22.97;;;4.60;;
15603;SDS011;7902;49.042;9.092;2023-08-17T01:29:38;20.03;;;4.73;;
15603;SDS011;7902;49.042;9.092;2023-08-17T01:32:12;21.37;;;4.93;;
15603;SDS011;7902;49.042;9.092;2023-08-17T01:34:48;23.53;;;4.70;;
15603;SDS011;7902;49.042;9.092;2023-08-17T01:37:25;16.93;;;3.97;;
15603;SDS011;7902;49.042;9.092;2023-08-17T01:39:55;19.50;;;3.70;;
15603;SDS011;7902;49.042;9.092;2023-08-17T01:42:23;21.70;;;3.30;;
15603;SDS011;7902;49.042;9.092;2023-08-17T01:44:50;19.43;;;3.27;;
15603;SDS011;7902;49.042;9.092;2023-08-17T01:47:19;16.47;;;3.43;;
15603;SDS011;7902;49.042;9.092;2023-08-17T01:49:46;19.90;;;3.43;;
15603;SDS011;7902;49.042;9.092;2023-08-17T01:52:12;26.27;;;3.57;;
15603;SDS011;7902;49.042;9.092;2023-08-17T01:54:38;19.43;;;3.20;;
15603;SDS011;7902;49.042;9.092;2023-08-17T01:57:04;21.97;;;3.90;;
15603;SDS011;7902;49.042;9.092;2023-08-17T01:59:30;17.33;;;3.07;;
15603;SDS011;7902;49.042;9.092;2023-08-17T02:01:56;22.17;;;3.03;;
15603;SDS011;7902;49.042;9.092;2023-08-17T02:04:22;20.30;;;3.73;;
15603;SDS011;7902;49.042;9.092;2023-08-17T02:06:48;29.23;;;3.47;;
15603;SDS011;7902;49.042;9.092;2023-08-17T02:09:14;17.63;;;3.23;;
15603;SDS011;7902;49.042;9.092;2023-08-17T02:11:39;19.10;;;2.77;;
15603;SDS011;7902;49.042;9.092;2023-08-17T02:14:05;21.97;;;2.83;;
15603;SDS011;7902;49.042;9.092;2023-08-17T02:16:31;21.30;;;3.37;;
15603;SDS011;7902;49.042;9.092;2023-08-17T02:18:57;17.77;;;2.53;;
15603;SDS011;7902;49.042;9.092;2023-08-17T02:21:23;20.20;;;3.03;;
15603;SDS011;7902;49.042;9.092;2023-08-17T02:23:49;24.93;;;2.47;;
15603;SDS011;7902;49.042;9.092;2023-08-17T02:26:15;16.90;;;2.93;;
15603;SDS011;7902;49.042;9.092;2023-08-17T02:28:41;18.00;;;3.17;;
15603;SDS011;7902;49.042;9.092;2023-08-17T02:31:06;16.63;;;3.53;;
15603;SDS011;7902;49.042;9.092;2023-08-17T02:33:32;17.37;;;2.60;;
15603;SDS011;7902;49.042;9.092;2023-08-17T02:35:59;23.23;;;3.23;;
15603;SDS011;7902;49.042;9.092;2023-08-17T02:38:25;18.47;;;3.00;;
15603;SDS011;7902;49.042;9.092;2023-08-17T02:40:51;22.90;;;3.40;;
15603;SDS011;7902;49.042;9.092;2023-08-17T02:43:16;20.17;;;3.80;;
15603;SDS011;7902;49.042;9.092;2023-08-17T02:45:42;16.67;;;3.33;;
15603;SDS011;7902;49.042;9.092;2023-08-17T02:48:08;21.90;;;3.10;;
15603;SDS011;7902;49.042;9.092;2023-08-17T02:50:34;23.93;;;2.80;;
15603;SDS011;7902;49.042;9.092;2023-08-17T02:53:00;16.60;;;3.13;;
15603;SDS011;7902;49.042;9.092;2023-08-17T02:55:27;16.60;;;3.10;;
15603;SDS011;7902;49.042;9.092;2023-08-17T02:57:53;18.27;;;2.50;;
15603;SDS011;7902;49.042;9.092;2023-08-17T03:00:19;33.17;;;3.40;;
15603;SDS011;7902;49.042;9.092;2023-08-17T03:02:45;17.53;;;3.10;;
15603;SDS011;7902;49.042;9.092;2023-08-17T03:05:11;15.53;;;2.67;;
15603;SDS011;7902;49.042;9.092;2023-08-17T03:07:37;18.60;;;2.93;;
15603;SDS011;7902;49.042;9.092;2023-08-17T03:10:03;18.67;;;3.30;;
15603;SDS011;7902;49.042;9.092;2023-08-17T03:12:29;19.90;;;2.73;;
15603;SDS011;7902;49.042;9.092;2023-08-17T03:14:55;16.57;;;3.00;;
15603;SDS011;7902;49.042;9.092;2023-08-17T03:17:21;16.97;;;2.70;;
15603;SDS011;7902;49.042;9.092;2023-08-17T03:19:47;16.00;;;2.93;;
15603;SDS011;7902;49.042;9.092;2023-08-17T03:22:13;24.63;;;3.40;;
15603;SDS011;7902;49.042;9.092;2023-08-17T03:24:38;16.80;;;3.10;;
15603;SDS011;7902;49.042;9.092;2023-08-17T03:27:04;21.43;;;3.27;;
15603;SDS011;7902;49.042;9.092;2023-08-17T03:29:30;21.30;;;3.27;;
15603;SDS011;7902;49.042;9.092;2023-08-17T03:31:56;17.63;;;3.80;;
15603;SDS011;7902;49.042;9.092;2023-08-17T03:34:22;15.83;;;2.87;;
15603;SDS011;7902;49.042;9.092;2023-08-17T03:36:48;19.73;;;3.20;;
15603;SDS011;7902;49.042;9.092;2023-08-17T03:39:14;20.13;;;3.70;;
15603;SDS011;7902;49.042;9.092;2023-08-17T03:41:41;22.13;;;3.70;;
15603;SDS011;7902;49.042;9.092;2023-08-17T03:44:07;16.97;;;3.23;;
15603;SDS011;7902;49.042;9.092;2023-08-17T03:46:33;26.53;;;3.70;;
15603;SDS011;7902;49.042;9.092;2023-08-17T03:48:59;20.10;;;3.60;;
15603;SDS011;7902;49.042;9.092;2023-08-17T03:51:25;22.37;;;3.37;;
15603;SDS011;7902;49.042;9.092;2023-08-17T03:53:51;18.67;;;3.47;;
15603;SDS011;7902;49.042;9.092;2023-08-17T03:56:18;20.53;;;2.97;;
15603;SDS011;7902;49.042;9.092;2023-08-17T03:58:43;25.27;;;3.27;;
15603;SDS011;7902;49.042;9.092;2023-08-17T04:01:09;22.40;;;3.97;;
15603;SDS011;7902;49.042;9.092;2023-08-17T04:03:37;19.33;;;4.30;;
15603;SDS011;7902;49.042;9.092;2023-08-17T04:06:06;21.23;;;3.40;;
15603;SDS011;7902;49.042;9.092;2023-08-17T04:08:32;25.83;;;4.33;;
15603;SDS011;7902;49.042;9.092;2023-08-17T04:10:58;20.90;;;4.10;;
15603;SDS011;7902;49.042;9.092;2023-08-17T04:13:24;16.07;;;2.90;;
15603;SDS011;7902;49.042;9.092;2023-08-17T04:15:50;17.97;;;3.00;;
15603;SDS011;7902;49.042;9.092;2023-08-17T04:18:16;16.40;;;3.13;;
15603;SDS011;7902;49.042;9.092;2023-08-17T04:20:42;19.43;;;3.30;;
15603;SDS011;7902;49.042;9.092;2023-08-17T04:23:07;26.60;;;3.70;;
15603;SDS011;7902;49.042;9.092;2023-08-17T04:25:33;18.80;;;3.87;;
15603;SDS011;7902;49.042;9.092;2023-08-17T04:27:59;19.00;;;3.40;;
15603;SDS011;7902;49.042;9.092;2023-08-17T04:30:25;20.90;;;3.10;;
15603;SDS011;7902;49.042;9.092;2023-08-17T04:32:51;21.30;;;3.30;;
15603;SDS011;7902;49.042;9.092;2023-08-17T04:35:18;17.47;;;3.30;;
15603;SDS011;7902;49.042;9.092;2023-08-17T04:37:44;26.80;;;3.60;;
15603;SDS011;7902;49.042;9.092;2023-08-17T04:40:10;19.00;;;3.67;;
15603;SDS011;7902;49.042;9.092;2023-08-17T04:42:36;19.07;;;3.50;;
15603;SDS011;7902;49.042;9.092;2023-08-17T04:45:02;21.20;;;3.30;;
15603;SDS011;7902;49.042;9.092;2023-08-17T04:47:28;25.03;;;4.10;;
15603;SDS011;7902;49.042;9.092;2023-08-17T04:49:54;17.83;;;3.63;;
15603;SDS011;7902;49.042;9.092;2023-08-17T04:52:20;18.37;;;3.60;;
15603;SDS011;7902;49.042;9.092;2023-08-17T04:54:46;23.20;;;3.60;;
15603;SDS011;7902;49.042;9.092;2023-08-17T04:57:12;19.07;;;3.17;;
15603;SDS011;7902;49.042;9.092;2023-08-17T04:59:38;15.93;;;2.40;;
15603;SDS011;7902;49.042;9.092;2023-08-17T05:02:04;17.70;;;2.70;;
15603;SDS011;7902;49.042;9.092;2023-08-17T05:04:30;16.90;;;3.10;;
15603;SDS011;7902;49.042;9.092;2023-08-17T05:06:56;16.60;;;2.50;;
15603;SDS011;7902;49.042;9.092;2023-08-17T05:09:22;19.60;;;2.63;;
15603;SDS011;7902;49.042;9.092;2023-08-17T05:11:48;24.33;;;2.60;;
15603;SDS011;7902;49.042;9.092;2023-08-17T05:14:14;21.10;;;2.33;;
15603;SDS011;7902;49.042;9.092;2023-08-17T05:16:40;17.23;;;2.70;;
15603;SDS011;7902;49.042;9.092;2023-08-17T05:19:06;19.77;;;2.63;;
15603;SDS011;7902;49.042;9.092;2023-08-17T05:21:32;23.87;;;2.90;;
15603;SDS011;7902;49.042;9.092;2023-08-17T05:23:57;16.67;;;2.70;;
15603;SDS011;7902;49.042;9.092;2023-08-17T05:26:23;22.87;;;2.90;;
15603;SDS011;7902;49.042;9.092;2023-08-17T05:28:49;27.60;;;2.90;;
15603;SDS011;7902;49.042;9.092;2023-08-17T05:31:15;21.47;;;3.10;;
15603;SDS011;7902;49.042;9.092;2023-08-17T05:33:41;15.97;;;2.70;;
15603;SDS011;7902;49.042;9.092;2023-08-17T05:36:07;22.13;;;3.00;;
15603;SDS011;7902;49.042;9.092;2023-08-17T05:38:33;15.60;;;2.50;;
15603;SDS011;7902;49.042;9.092;2023-08-17T05:40:59;17.00;;;2.73;;
15603;SDS011;7902;49.042;9.092;2023-08-17T05:43:27;20.23;;;3.17;;
15603;SDS011;7902;49.042;9.092;2023-08-17T05:45:53;18.90;;;2.13;;
15603;SDS011;7902;49.042;9.092;2023-08-17T05:48:19;18.80;;;2.60;;
15603;SDS011;7902;49.042;9.092;2023-08-17T05:50:46;20.67;;;3.17;;
15603;SDS011;7902;49.042;9.092;2023-08-17T05:53:12;18.33;;;3.13;;
15603;SDS011;7902;49.042;9.092;2023-08-17T05:55:38;16.50;;;2.93;;
15603;SDS011;7902;49.042;9.092;2023-08-17T05:58:04;20.90;;;3.20;;
15603;SDS011;7902;49.042;9.092;2023-08-17T06:00:30;16.53;;;3.13;;
15603;SDS011;7902;49.042;9.092;2023-08-17T06:02:56;19.73;;;3.00;;
15603;SDS011;7902;49.042;9.092;2023-08-17T06:05:27;16.30;;;2.60;;
15603;SDS011;7902;49.042;9.092;2023-08-17T06:07:56;21.50;;;3.50;;
15603;SDS011;7902;49.042;9.092;2023-08-17T06:10:22;17.80;;;2.70;;
15603;SDS011;7902;49.042;9.092;2023-08-17T06:12:53;17.40;;;3.03;;
15603;SDS011;7902;49.042;9.092;2023-08-17T06:15:19;19.10;;;3.13;;
15603;SDS011;7902;49.042;9.092;2023-08-17T06:17:45;18.73;;;3.77;;
15603;SDS011;7902;49.042;9.092;2023-08-17T06:20:12;16.97;;;2.83;;
15603;SDS011;7902;49.042;9.092;2023-08-17T06:22:38;21.60;;;2.77;;
15603;SDS011;7902;49.042;9.092;2023-08-17T06:25:04;17.40;;;3.10;;
15603;SDS011;7902;49.042;9.092;2023-08-17T06:27:31;19.20;;;3.10;;
15603;SDS011;7902;49.042;9.092;2023-08-17T06:29:57;18.47;;;3.17;;
15603;SDS011;7902;49.042;9.092;2023-08-17T06:32:23;18.33;;;3.30;;
15603;SDS011;7902;49.042;9.092;2023-08-17T06:34:49;18.83;;;3.57;;
15603;SDS011;7902;49.042;9.092;2023-08-17T06:37:15;19.47;;;3.10;;
15603;SDS011;7902;49.042;9.092;2023-08-17T06:39:41;19.07;;;3.70;;
15603;SDS011;7902;49.042;9.092;2023-08-17T06:42:07;17.70;;;2.70;;
15603;SDS011;7902;49.042;9.092;2023-08-17T06:44:33;17.67;;;4.00;;
15603;SDS011;7902;49.042;9.092;2023-08-17T06:46:59;20.20;;;3.67;;
15603;SDS011;7902;49.042;9.092;2023-08-17T06:49:25;18.00;;;2.73;;
15603;SDS011;7902;49.042;9.092;2023-08-17T06:51:51;18.40;;;3.80;;
15603;SDS011;7902;49.042;9.092;2023-08-17T06:54:17;17.60;;;3.37;;
15603;SDS011;7902;49.042;9.092;2023-08-17T06:56:43;19.90;;;3.40;;
15603;SDS011;7902;49.042;9.092;2023-08-17T06:59:09;22.43;;;3.90;;
15603;SDS011;7902;49.042;9.092;2023-08-17T07:01:35;21.47;;;3.70;;
15603;SDS011;7902;49.042;9.092;2023-08-17T07:04:01;30.67;;;4.47;;
15603;SDS011;7902;49.042;9.092;2023-08-17T07:06:27;18.83;;;4.03;;
15603;SDS011;7902;49.042;9.092;2023-08-17T07:08:54;21.00;;;4.10;;
15603;SDS011;7902;49.042;9.092;2023-08-17T07:11:20;19.90;;;4.67;;
15603;SDS011;7902;49.042;9.092;2023-08-17T07:13:46;17.70;;;4.20;;
15603;SDS011;7902;49.042;9.092;2023-08-17T07:16:12;18.70;;;4.10;;
15603;SDS011;7902;49.042;9.092;2023-08-17T07:18:39;20.87;;;4.47;;
15603;SDS011;7902;49.042;9.092;2023-08-17T07:21:05;18.67;;;4.30;;
15603;SDS011;7902;49.042;9.092;2023-08-17T07:23:31;29.90;;;6.13;;
15603;SDS011;7902;49.042;9.092;2023-08-17T07:25:57;21.40;;;5.27;;
15603;SDS011;7902;49.042;9.092;2023-08-17T07:28:23;22.27;;;4.67;;
15603;SDS011;7902;49.042;9.092;2023-08-17T07:30:49;21.90;;;5.00;;
15603;SDS011;7902;49.042;9.092;2023-08-17T07:33:15;22.33;;;5.03;;
15603;SDS011;7902;49.042;9.092;2023-08-17T07:35:41;22.43;;;5.37;;
15603;SDS011;7902;49.042;9.092;2023-08-17T07:38:07;21.00;;;5.53;;
15603;SDS011;7902;49.042;9.092;2023-08-17T07:40:33;20.60;;;6.17;;
15603;SDS011;7902;49.042;9.092;2023-08-17T07:42:59;24.38;;;5.78;;
15603;SDS011;7902;49.042;9.092;2023-08-17T07:45:25;23.40;;;6.50;;
15603;SDS011;7902;49.042;9.092;2023-08-17T07:47:50;25.80;;;7.50;;
15603;SDS011;7902;49.042;9.092;2023-08-17T07:50:16;26.30;;;7.30;;
15603;SDS011;7902;49.042;9.092;2023-08-17T07:52:42;22.42;;;6.57;;
15603;SDS011;7902;49.042;9.092;2023-08-17T07:55:08;22.93;;;8.20;;
15603;SDS011;7902;49.042;9.092;2023-08-17T07:57:34;26.38;;;7.80;;
15603;SDS011;7902;49.042;9.092;2023-08-17T08:00:00;25.15;;;8.65;;
15603;SDS011;7902;49.042;9.092;2023-08-17T08:02:26;24.27;;;7.70;;
15603;SDS011;7902;49.042;9.092;2023-08-17T08:04:52;29.40;;;8.23;;
15603;SDS011;7902;49.042;9.092;2023-08-17T08:07:18;29.08;;;7.97;;
15603;SDS011;7902;49.042;9.092;2023-08-17T08:09:44;23.63;;;7.70;;
15603;SDS011;7902;49.042;9.092;2023-08-17T08:12:09;25.58;;;8.13;;
15603;SDS011;7902;49.042;9.092;2023-08-17T08:14:35;30.85;;;7.18;;
15603;SDS011;7902;49.042;9.092;2023-08-17T08:17:01;25.70;;;7.63;;
15603;SDS011;7902;49.042;9.092;2023-08-17T08:19:27;23.88;;;7.45;;
15603;SDS011;7902;49.042;9.092;2023-08-17T08:21:53;28.38;;;9.10;;
15603;SDS011;7902;49.042;9.092;2023-08-17T08:24:19;30.27;;;7.75;;
15603;SDS011;7902;49.042;9.092;2023-08-17T08:26:45;31.55;;;9.55;;
15603;SDS011;7902;49.042;9.092;2023-08-17T08:29:11;24.05;;;8.57;;
15603;SDS011;7902;49.042;9.092;2023-08-17T08:31:37;29.85;;;8.45;;
15603;SDS011;7902;49.042;9.092;2023-08-17T08:34:03;28.98;;;8.05;;
15603;SDS011;7902;49.042;9.092;2023-08-17T08:36:29;25.77;;;8.18;;
15603;SDS011;7902;49.042;9.092;2023-08-17T08:38:55;34.92;;;8.50;;
15603;SDS011;7902;49.042;9.092;2023-08-17T08:41:21;24.73;;;7.45;;
15603;SDS011;7902;49.042;9.092;2023-08-17T08:43:47;25.10;;;6.97;;
15603;SDS011;7902;49.042;9.092;2023-08-17T08:46:14;25.73;;;6.70;;
15603;SDS011;7902;49.042;9.092;2023-08-17T08:48:42;29.20;;;6.60;;
15603;SDS011;7902;49.042;9.092;2023-08-17T08:51:11;23.98;;;6.82;;
15603;SDS011;7902;49.042;9.092;2023-08-17T08:53:44;24.40;;;7.20;;
15603;SDS011;7902;49.042;9.092;2023-08-17T08:56:11;23.83;;;6.60;;
15603;SDS011;7902;49.042;9.092;2023-08-17T08:58:40;23.05;;;6.85;;
15603;SDS011;7902;49.042;9.092;2023-08-17T09:01:08;23.33;;;6.32;;
15603;SDS011;7902;49.042;9.092;2023-08-17T09:03:36;26.38;;;6.55;;
15603;SDS011;7902;49.042;9.092;2023-08-17T09:06:03;23.67;;;7.40;;
15603;SDS011;7902;49.042;9.092;2023-08-17T09:08:30;25.45;;;6.68;;
15603;SDS011;7902;49.042;9.092;2023-08-17T09:10:56;24.95;;;5.65;;
15603;SDS011;7902;49.042;9.092;2023-08-17T09:13:23;30.83;;;6.50;;
15603;SDS011;7902;49.042;9.092;2023-08-17T09:15:49;22.70;;;6.18;;
15603;SDS011;7902;49.042;9.092;2023-08-17T09:18:15;23.48;;;6.35;;
15603;SDS011;7902;49.042;9.092;2023-08-17T09:20:43;24.42;;;6.05;;
15603;SDS011;7902;49.042;9.092;2023-08-17T09:23:18;24.25;;;4.97;;
15603;SDS011;7902;49.042;9.092;2023-08-17T09:25:45;26.75;;;7.00;;
15603;SDS011;7902;49.042;9.092;2023-08-17T09:28:13;30.27;;;6.78;;
15603;SDS011;7902;49.042;9.092;2023-08-17T09:30:53;26.67;;;5.80;;
15603;SDS011;7902;49.042;9.092;2023-08-17T09:33:24;24.38;;;6.07;;
15603;SDS011;7902;49.042;9.092;2023-08-17T09:35:55;29.20;;;7.00;;
15603;SDS011;7902;49.042;9.092;2023-08-17T09:38:23;24.85;;;6.72;;
15603;SDS011;7902;49.042;9.092;2023-08-17T09:40:52;24.90;;;7.07;;
15603;SDS011;7902;49.042;9.092;2023-08-17T09:43:19;27.55;;;6.25;;
15603;SDS011;7902;49.042;9.092;2023-08-17T09:45:48;24.58;;;7.50;;
15603;SDS011;7902;49.042;9.092;2023-08-17T09:48:20;27.25;;;7.82;;
15603;SDS011;7902;49.042;9.092;2023-08-17T09:50:47;28.35;;;7.00;;
15603;SDS011;7902;49.042;9.092;2023-08-17T09:53:14;32.25;;;7.18;;
15603;SDS011;7902;49.042;9.092;2023-08-17T09:55:41;23.75;;;5.93;;
15603;SDS011;7902;49.042;9.092;2023-08-17T09:58:08;22.33;;;5.53;;
15603;SDS011;7902;49.042;9.092;2023-08-17T10:00:34;25.55;;;5.88;;
15603;SDS011;7902;49.042;9.092;2023-08-17T10:03:02;22.92;;;6.28;;
15603;SDS011;7902;49.042;9.092;2023-08-17T10:05:31;28.73;;;6.32;;
15603;SDS011;7902;49.042;9.092;2023-08-17T10:08:08;21.38;;;5.45;;
15603;SDS011;7902;49.042;9.092;2023-08-17T10:10:49;29.80;;;6.68;;
15603;SDS011;7902;49.042;9.092;2023-08-17T10:15:57;31.02;;;6.45;;
15603;SDS011;7902;49.042;9.092;2023-08-17T10:18:38;22.55;;;6.43;;
15603;SDS011;7902;49.042;9.092;2023-08-17T10:21:17;22.83;;;4.93;;
15603;SDS011;7902;49.042;9.092;2023-08-17T10:23:57;20.42;;;4.93;;
15603;SDS011;7902;49.042;9.092;2023-08-17T10:26:23;24.60;;;6.00;;
15603;SDS011;7902;49.042;9.092;2023-08-17T10:28:51;25.90;;;5.75;;
15603;SDS011;7902;49.042;9.092;2023-08-17T10:31:19;25.80;;;5.90;;
15603;SDS011;7902;49.042;9.092;2023-08-17T10:33:46;27.17;;;5.60;;
15603;SDS011;7902;49.042;9.092;2023-08-17T10:36:13;21.23;;;5.10;;
15603;SDS011;7902;49.042;9.092;2023-08-17T10:38:40;22.85;;;5.50;;
15603;SDS011;7902;49.042;9.092;2023-08-17T10:41:10;23.40;;;6.47;;
15603;SDS011;7902;49.042;9.092;2023-08-17T10:46:31;25.40;;;5.60;;
15603;SDS011;7902;49.042;9.092;2023-08-17T10:49:02;22.13;;;4.38;;
15603;SDS011;7902;49.042;9.092;2023-08-17T10:51:30;25.00;;;4.50;;
15603;SDS011;7902;49.042;9.092;2023-08-17T10:53:56;24.98;;;5.50;;
15603;SDS011;7902;49.042;9.092;2023-08-17T10:56:26;21.75;;;4.80;;
15603;SDS011;7902;49.042;9.092;2023-08-17T10:58:59;22.23;;;5.05;;
15603;SDS011;7902;49.042;9.092;2023-08-17T11:01:31;22.33;;;4.43;;
15603;SDS011;7902;49.042;9.092;2023-08-17T11:04:10;25.77;;;4.38;;
15603;SDS011;7902;49.042;9.092;2023-08-17T11:06:36;22.60;;;3.97;;
15603;SDS011;7902;49.042;9.092;2023-08-17T11:09:06;22.08;;;4.53;;
15603;SDS011;7902;49.042;9.092;2023-08-17T11:11:33;30.23;;;4.25;;
15603;SDS011;7902;49.042;9.092;2023-08-17T11:13:59;23.27;;;4.53;;
15603;SDS011;7902;49.042;9.092;2023-08-17T11:16:25;22.05;;;5.05;;
15603;SDS011;7902;49.042;9.092;2023-08-17T11:18:51;25.20;;;4.15;;
15603;SDS011;7902;49.042;9.092;2023-08-17T11:21:17;19.05;;;4.00;;
15603;SDS011;7902;49.042;9.092;2023-08-17T11:23:43;20.83;;;3.90;;
15603;SDS011;7902;49.042;9.092;2023-08-17T11:26:09;22.50;;;3.95;;
15603;SDS011;7902;49.042;9.092;2023-08-17T11:28:36;22.63;;;4.32;;
15603;SDS011;7902;49.042;9.092;2023-08-17T11:31:02;24.40;;;4.95;;
15603;SDS011;7902;49.042;9.092;2023-08-17T11:33:30;20.20;;;4.22;;
15603;SDS011;7902;49.042;9.092;2023-08-17T11:35:57;21.48;;;4.43;;
15603;SDS011;7902;49.042;9.092;2023-08-17T11:38:23;21.60;;;3.80;;
15603;SDS011;7902;49.042;9.092;2023-08-17T11:40:50;23.02;;;3.95;;
15603;SDS011;7902;49.042;9.092;2023-08-17T11:43:16;19.70;;;3.78;;
15603;SDS011;7902;49.042;9.092;2023-08-17T11:45:43;30.20;;;4.20;;
15603;SDS011;7902;49.042;9.092;2023-08-17T11:48:09;20.00;;;4.03;;
15603;SDS011;7902;49.042;9.092;2023-08-17T11:50:35;23.20;;;3.55;;
15603;SDS011;7902;49.042;9.092;2023-08-17T11:53:01;20.65;;;4.25;;
15603;SDS011;7902;49.042;9.092;2023-08-17T11:55:27;19.33;;;3.70;;
15603;SDS011;7902;49.042;9.092;2023-08-17T11:57:54;20.33;;;4.22;;
15603;SDS011;7902;49.042;9.092;2023-08-17T12:00:21;21.83;;;4.63;;
15603;SDS011;7902;49.042;9.092;2023-08-17T12:02:48;26.83;;;4.72;;
15603;SDS011;7902;49.042;9.092;2023-08-17T12:05:18;21.85;;;4.05;;
15603;SDS011;7902;49.042;9.092;2023-08-17T12:07:45;22.95;;;3.90;;
15603;SDS011;7902;49.042;9.092;2023-08-17T12:10:11;22.40;;;4.05;;
15603;SDS011;7902;49.042;9.092;2023-08-17T12:12:37;33.55;;;3.70;;
15603;SDS011;7902;49.042;9.092;2023-08-17T12:15:04;22.02;;;4.07;;
15603;SDS011;7902;49.042;9.092;2023-08-17T12:17:31;22.45;;;4.25;;
15603;SDS011;7902;49.042;9.092;2023-08-17T12:19:58;21.52;;;3.72;;
15603;SDS011;7902;49.042;9.092;2023-08-17T12:22:24;21.35;;;3.92;;
15603;SDS011;7902;49.042;9.092;2023-08-17T12:24:51;19.42;;;3.20;;
15603;SDS011;7902;49.042;9.092;2023-08-17T12:27:18;20.38;;;3.50;;
15603;SDS011;7902;49.042;9.092;2023-08-17T12:29:46;21.60;;;3.95;;
15603;SDS011;7902;49.042;9.092;2023-08-17T12:32:13;22.33;;;3.50;;
15603;SDS011;7902;49.042;9.092;2023-08-17T12:34:41;24.90;;;4.72;;
15603;SDS011;7902;49.042;9.092;2023-08-17T12:37:10;20.95;;;3.90;;
15603;SDS011;7902;49.042;9.092;2023-08-17T12:39:37;22.70;;;4.03;;
15603;SDS011;7902;49.042;9.092;2023-08-17T12:42:03;20.45;;;4.35;;
15603;SDS011;7902;49.042;9.092;2023-08-17T12:44:29;20.80;;;4.07;;
15603;SDS011;7902;49.042;9.092;2023-08-17T12:46:55;20.23;;;4.18;;
15603;SDS011;7902;49.042;9.092;2023-08-17T12:49:22;21.20;;;4.93;;
15603;SDS011;7902;49.042;9.092;2023-08-17T12:51:49;25.50;;;4.97;;
15603;SDS011;7902;49.042;9.092;2023-08-17T12:54:15;25.05;;;5.03;;
15603;SDS011;7902;49.042;9.092;2023-08-17T12:56:41;23.63;;;5.85;;
15603;SDS011;7902;49.042;9.092;2023-08-17T12:59:07;23.77;;;5.75;;
15603;SDS011;7902;49.042;9.092;2023-08-17T13:01:33;24.40;;;6.15;;
15603;SDS011;7902;49.042;9.092;2023-08-17T13:03:59;22.98;;;5.55;;
15603;SDS011;7902;49.042;9.092;2023-08-17T13:06:25;24.13;;;5.13;;
15603;SDS011;7902;49.042;9.092;2023-08-17T13:08:51;23.83;;;4.90;;
15603;SDS011;7902;49.042;9.092;2023-08-17T13:11:17;22.25;;;5.13;;
15603;SDS011;7902;49.042;9.092;2023-08-17T13:13:42;24.63;;;5.75;;
15603;SDS011;7902;49.042;9.092;2023-08-17T13:16:09;25.30;;;5.07;;
15603;SDS011;7902;49.042;9.092;2023-08-17T13:18:36;24.33;;;5.55;;
15603;SDS011;7902;49.042;9.092;2023-08-17T13:21:02;23.92;;;5.10;;
15603;SDS011;7902;49.042;9.092;2023-08-17T13:23:28;25.08;;;5.53;;
15603;SDS011;7902;49.042;9.092;2023-08-17T13:25:54;25.60;;;5.28;;
15603;SDS011;7902;49.042;9.092;2023-08-17T13:28:20;23.30;;;5.78;;
15603;SDS011;7902;49.042;9.092;2023-08-17T13:30:46;26.80;;;5.18;;
15603;SDS011;7902;49.042;9.092;2023-08-17T13:33:12;27.23;;;5.80;;
15603;SDS011;7902;49.042;9.092;2023-08-17T13:35:38;22.35;;;5.38;;
15603;SDS011;7902;49.042;9.092;2023-08-17T13:38:04;24.75;;;5.97;;
15603;SDS011;7902;49.042;9.092;2023-08-17T13:40:31;26.70;;;6.30;;
15603;SDS011;7902;49.042;9.092;2023-08-17T13:42:57;21.92;;;5.70;;
15603;SDS011;7902;49.042;9.092;2023-08-17T13:45:26;24.15;;;5.93;;
15603;SDS011;7902;49.042;9.092;2023-08-17T13:47:52;29.13;;;6.30;;
15603;SDS011;7902;49.042;9.092;2023-08-17T13:50:18;30.38;;;6.50;;
15603;SDS011;7902;49.042;9.092;2023-08-17T13:52:44;22.13;;;6.20;;
15603;SDS011;7902;49.042;9.092;2023-08-17T13:55:10;22.88;;;6.07;;
15603;SDS011;7902;49.042;9.092;2023-08-17T14:00:08;22.05;;;6.57;;
15603;SDS011;7902;49.042;9.092;2023-08-17T14:02:35;24.25;;;6.75;;
15603;SDS011;7902;49.042;9.092;2023-08-17T14:05:01;31.30;;;7.47;;
15603;SDS011;7902;49.042;9.092;2023-08-17T14:07:27;22.58;;;6.93;;
15603;SDS011;7902;49.042;9.092;2023-08-17T14:09:52;33.47;;;7.30;;
15603;SDS011;7902;49.042;9.092;2023-08-17T14:12:18;25.58;;;6.68;;
15603;SDS011;7902;49.042;9.092;2023-08-17T14:14:44;24.45;;;7.60;;
15603;SDS011;7902;49.042;9.092;2023-08-17T14:17:10;25.77;;;7.80;;
15603;SDS011;7902;49.042;9.092;2023-08-17T14:19:36;22.75;;;6.78;;
15603;SDS011;7902;49.042;9.092;2023-08-17T14:22:02;24.60;;;7.72;;
15603;SDS011;7902;49.042;9.092;2023-08-17T14:24:28;29.02;;;7.22;;
15603;SDS011;7902;49.042;9.092;2023-08-17T14:26:54;24.73;;;7.53;;
15603;SDS011;7902;49.042;9.092;2023-08-17T14:29:19;23.80;;;7.05;;
15603;SDS011;7902;49.042;9.092;2023-08-17T14:31:45;25.58;;;7.72;;
15603;SDS011;7902;49.042;9.092;2023-08-17T14:34:11;29.40;;;8.35;;
15603;SDS011;7902;49.042;9.092;2023-08-17T14:36:39;24.88;;;7.90;;
15603;SDS011;7902;49.042;9.092;2023-08-17T14:39:05;28.63;;;7.47;;
15603;SDS011;7902;49.042;9.092;2023-08-17T14:41:30;25.85;;;6.82;;
15603;SDS011;7902;49.042;9.092;2023-08-17T14:43:58;26.00;;;6.85;;
15603;SDS011;7902;49.042;9.092;2023-08-17T14:46:25;31.00;;;8.13;;
15603;SDS011;7902;49.042;9.092;2023-08-17T14:48:51;25.92;;;7.68;;
15603;SDS011;7902;49.042;9.092;2023-08-17T14:51:17;21.05;;;6.45;;
15603;SDS011;7902;49.042;9.092;2023-08-17T14:53:43;24.50;;;7.78;;